sensor_id;sensor_type;location;lat;lon;timestamp;temperature;humidity
32753;DHT22;19121;52.428;10.816;2023-11-22T00:00:13;19.40;50.00
32753;DHT22;19121;52.428;10.816;2023-11-22T00:02:39;19.50;50.10
32753;DHT22;19121;52.428;10.816;2023-11-22T00:05:05;19.40;50.00
32753;DHT22;19121;52.428;10.816;2023-11-22T00:07:31;19.40;50.00
32753;DHT22;19121;52.428;10.816;2023-11-22T00:09:56;19.40;49.90
32753;DHT22;19121;52.428;10.816;2023-11-22T00:12:22;19.40;49.90
32753;DHT22;19121;52.428;10.816;2023-11-22T00:14:48;19.40;49.90
32753;DHT22;19121;52.428;10.816;2023-11-22T00:17:14;19.40;49.90
32753;DHT22;19121;52.428;10.816;2023-11-22T00:19:39;19.40;49.90
32753;DHT22;19121;52.428;10.816;2023-11-22T00:22:05;19.40;49.90
32753;DHT22;19121;52.428;10.816;2023-11-22T00:24:38;19.40;49.90
32753;DHT22;19121;52.428;10.816;2023-11-22T00:27:04;19.40;49.90
32753;DHT22;19121;52.428;10.816;2023-11-22T00:29:30;19.40;49.90
32753;DHT22;19121;52.428;10.816;2023-11-22T00:31:55;19.40;49.90
32753;DHT22;19121;52.428;10.816;2023-11-22T00:34:21;19.40;49.90
32753;DHT22;19121;52.428;10.816;2023-11-22T00:36:48;19.40;49.90
32753;DHT22;19121;52.428;10.816;2023-11-22T00:39:14;19.40;49.90
32753;DHT22;19121;52.428;10.816;2023-11-22T00:41:39;19.40;49.90
32753;DHT22;19121;52.428;10.816;2023-11-22T00:44:05;19.40;49.80
32753;DHT22;19121;52.428;10.816;2023-11-22T00:46:31;19.40;49.90
32753;DHT22;19121;52.428;10.816;2023-11-22T00:48:57;19.30;49.80
32753;DHT22;19121;52.428;10.816;2023-11-22T00:51:22;19.50;49.90
32753;DHT22;19121;52.428;10.816;2023-11-22T00:53:48;19.40;49.80
32753;DHT22;19121;52.428;10.816;2023-11-22T00:56:14;19.40;49.80
32753;DHT22;19121;52.428;10.816;2023-11-22T00:58:40;19.30;49.80
32753;DHT22;19121;52.428;10.816;2023-11-22T01:01:06;19.30;49.80
32753;DHT22;19121;52.428;10.816;2023-11-22T01:03:31;19.40;49.80
32753;DHT22;19121;52.428;10.816;2023-11-22T01:05:57;19.30;49.80
32753;DHT22;19121;52.428;10.816;2023-11-22T01:08:23;19.30;49.80
32753;DHT22;19121;52.428;10.816;2023-11-22T01:10:48;19.30;49.80
32753;DHT22;19121;52.428;10.816;2023-11-22T01:13:14;19.30;49.80
32753;DHT22;19121;52.428;10.816;2023-11-22T01:15:40;19.30;49.80
32753;DHT22;19121;52.428;10.816;2023-11-22T01:18:05;19.30;49.80
32753;DHT22;19121;52.428;10.816;2023-11-22T01:20:31;19.40;49.80
32753;DHT22;19121;52.428;10.816;2023-11-22T01:22:56;19.30;49.80
32753;DHT22;19121;52.428;10.816;2023-11-22T01:25:22;19.30;49.80
32753;DHT22;19121;52.428;10.816;2023-11-22T01:27:47;19.30;49.70
32753;DHT22;19121;52.428;10.816;2023-11-22T01:30:13;19.30;49.80
32753;DHT22;19121;52.428;10.816;2023-11-22T01:32:40;19.30;49.70
32753;DHT22;19121;52.428;10.816;2023-11-22T01:35:05;19.30;49.70
32753;DHT22;19121;52.428;10.816;2023-11-22T01:37:31;19.30;49.70
32753;DHT22;19121;52.428;10.816;2023-11-22T01:39:57;19.20;49.70
32753;DHT22;19121;52.428;10.816;2023-11-22T01:42:23;19.30;49.70
32753;DHT22;19121;52.428;10.816;2023-11-22T01:44:49;19.30;49.70
32753;DHT22;19121;52.428;10.816;2023-11-22T01:47:14;19.30;49.70
32753;DHT22;19121;52.428;10.816;2023-11-22T01:49:40;19.20;49.70
32753;DHT22;19121;52.428;10.816;2023-11-22T01:52:06;19.20;49.70
32753;DHT22;19121;52.428;10.816;2023-11-22T01:54:32;19.30;49.70
32753;DHT22;19121;52.428;10.816;2023-11-22T01:56:57;19.30;49.70
32753;DHT22;19121;52.428;10.816;2023-11-22T01:59:24;19.30;49.70
32753;DHT22;19121;52.428;10.816;2023-11-22T02:01:51;19.30;49.70
32753;DHT22;19121;52.428;10.816;2023-11-22T02:04:18;19.20;49.60
32753;DHT22;19121;52.428;10.816;2023-11-22T02:06:43;19.20;49.60
32753;DHT22;19121;52.428;10.816;2023-11-22T02:09:09;19.20;49.60
32753;DHT22;19121;52.428;10.816;2023-11-22T02:11:39;19.20;49.60
32753;DHT22;19121;52.428;10.816;2023-11-22T02:14:04;19.20;49.60
32753;DHT22;19121;52.428;10.816;2023-11-22T02:16:32;19.20;49.60
32753;DHT22;19121;52.428;10.816;2023-11-22T02:18:57;19.20;49.60
32753;DHT22;19121;52.428;10.816;2023-11-22T02:21:23;19.20;49.60
32753;DHT22;19121;52.428;10.816;2023-11-22T02:23:48;19.20;49.50
32753;DHT22;19121;52.428;10.816;2023-11-22T02:26:14;19.20;49.50
32753;DHT22;19121;52.428;10.816;2023-11-22T02:28:43;19.20;49.50
32753;DHT22;19121;52.428;10.816;2023-11-22T02:31:08;19.20;49.50
32753;DHT22;19121;52.428;10.816;2023-11-22T02:33:34;19.20;49.50
32753;DHT22;19121;52.428;10.816;2023-11-22T02:36:01;19.20;49.60
32753;DHT22;19121;52.428;10.816;2023-11-22T02:38:27;19.20;50.20
32753;DHT22;19121;52.428;10.816;2023-11-22T02:40:53;19.20;49.50
32753;DHT22;19121;52.428;10.816;2023-11-22T02:43:19;19.20;49.50
32753;DHT22;19121;52.428;10.816;2023-11-22T02:45:44;19.20;49.50
32753;DHT22;19121;52.428;10.816;2023-11-22T02:48:10;19.20;49.50
32753;DHT22;19121;52.428;10.816;2023-11-22T02:50:35;19.20;49.50
32753;DHT22;19121;52.428;10.816;2023-11-22T02:53:02;19.20;49.50
32753;DHT22;19121;52.428;10.816;2023-11-22T02:55:28;19.20;49.50
32753;DHT22;19121;52.428;10.816;2023-11-22T02:57:54;19.10;49.30
32753;DHT22;19121;52.428;10.816;2023-11-22T03:00:19;19.20;49.40
32753;DHT22;19121;52.428;10.816;2023-11-22T03:02:45;19.20;49.40
32753;DHT22;19121;52.428;10.816;2023-11-22T03:05:12;19.20;49.40
32753;DHT22;19121;52.428;10.816;2023-11-22T03:07:38;19.20;49.40
32753;DHT22;19121;52.428;10.816;2023-11-22T03:10:03;19.20;49.40
32753;DHT22;19121;52.428;10.816;2023-11-22T03:12:29;19.20;49.40
32753;DHT22;19121;52.428;10.816;2023-11-22T03:14:55;19.10;49.30
32753;DHT22;19121;52.428;10.816;2023-11-22T03:17:26;19.10;49.30
32753;DHT22;19121;52.428;10.816;2023-11-22T03:19:53;19.20;49.30
32753;DHT22;19121;52.428;10.816;2023-11-22T03:22:18;19.20;49.30
32753;DHT22;19121;52.428;10.816;2023-11-22T03:24:45;19.20;49.30
32753;DHT22;19121;52.428;10.816;2023-11-22T03:27:10;19.20;49.30
32753;DHT22;19121;52.428;10.816;2023-11-22T03:29:37;19.20;49.20
32753;DHT22;19121;52.428;10.816;2023-11-22T03:32:03;19.20;49.10
32753;DHT22;19121;52.428;10.816;2023-11-22T03:34:29;19.20;49.10
32753;DHT22;19121;52.428;10.816;2023-11-22T03:36:54;19.20;49.10
32753;DHT22;19121;52.428;10.816;2023-11-22T03:39:20;19.20;49.00
32753;DHT22;19121;52.428;10.816;2023-11-22T03:41:45;19.30;49.00
32753;DHT22;19121;52.428;10.816;2023-11-22T03:44:11;19.30;49.00
32753;DHT22;19121;52.428;10.816;2023-11-22T03:46:36;19.30;48.90
32753;DHT22;19121;52.428;10.816;2023-11-22T03:49:05;19.30;48.90
32753;DHT22;19121;52.428;10.816;2023-11-22T03:51:34;19.30;48.90
32753;DHT22;19121;52.428;10.816;2023-11-22T03:53:59;19.50;49.60
32753;DHT22;19121;52.428;10.816;2023-11-22T03:56:25;19.30;48.80
32753;DHT22;19121;52.428;10.816;2023-11-22T03:58:50;19.40;48.80
32753;DHT22;19121;52.428;10.816;2023-11-22T04:01:16;19.40;48.80
32753;DHT22;19121;52.428;10.816;2023-11-22T04:03:41;19.40;48.70
32753;DHT22;19121;52.428;10.816;2023-11-22T04:06:07;19.40;48.70
32753;DHT22;19121;52.428;10.816;2023-11-22T04:08:33;19.40;48.70
32753;DHT22;19121;52.428;10.816;2023-11-22T04:10:58;19.40;48.70
32753;DHT22;19121;52.428;10.816;2023-11-22T04:13:24;19.40;48.70
32753;DHT22;19121;52.428;10.816;2023-11-22T04:15:50;19.40;48.70
32753;DHT22;19121;52.428;10.816;2023-11-22T04:18:16;19.40;48.60
32753;DHT22;19121;52.428;10.816;2023-11-22T04:20:41;19.40;48.60
32753;DHT22;19121;52.428;10.816;2023-11-22T04:23:07;19.40;48.60
32753;DHT22;19121;52.428;10.816;2023-11-22T04:25:36;19.40;48.50
32753;DHT22;19121;52.428;10.816;2023-11-22T04:28:02;19.40;48.50
32753;DHT22;19121;52.428;10.816;2023-11-22T04:30:27;19.40;48.50
32753;DHT22;19121;52.428;10.816;2023-11-22T04:32:53;19.40;48.50
32753;DHT22;19121;52.428;10.816;2023-11-22T04:35:18;19.40;48.40
32753;DHT22;19121;52.428;10.816;2023-11-22T04:37:44;19.40;48.50
32753;DHT22;19121;52.428;10.816;2023-11-22T04:40:09;19.40;48.40
32753;DHT22;19121;52.428;10.816;2023-11-22T04:42:36;19.40;48.40
32753;DHT22;19121;52.428;10.816;2023-11-22T04:45:02;19.40;48.40
32753;DHT22;19121;52.428;10.816;2023-11-22T04:47:28;19.40;48.40
32753;DHT22;19121;52.428;10.816;2023-11-22T04:49:53;19.40;48.30
32753;DHT22;19121;52.428;10.816;2023-11-22T04:52:19;19.40;48.30
32753;DHT22;19121;52.428;10.816;2023-11-22T04:54:44;19.40;48.30
32753;DHT22;19121;52.428;10.816;2023-11-22T04:57:10;19.40;48.30
32753;DHT22;19121;52.428;10.816;2023-11-22T04:59:35;19.40;48.30
32753;DHT22;19121;52.428;10.816;2023-11-22T05:02:01;19.50;48.30
32753;DHT22;19121;52.428;10.816;2023-11-22T05:04:26;19.40;48.20
32753;DHT22;19121;52.428;10.816;2023-11-22T05:06:54;19.50;48.20
32753;DHT22;19121;52.428;10.816;2023-11-22T05:09:20;19.40;48.20
32753;DHT22;19121;52.428;10.816;2023-11-22T05:11:45;19.40;48.20
32753;DHT22;19121;52.428;10.816;2023-11-22T05:14:11;19.40;48.20
32753;DHT22;19121;52.428;10.816;2023-11-22T05:16:36;19.40;48.10
32753;DHT22;19121;52.428;10.816;2023-11-22T05:19:02;19.40;48.10
32753;DHT22;19121;52.428;10.816;2023-11-22T05:21:27;19.40;48.10
32753;DHT22;19121;52.428;10.816;2023-11-22T05:23:53;19.40;48.10
32753;DHT22;19121;52.428;10.816;2023-11-22T05:26:20;19.40;48.10
32753;DHT22;19121;52.428;10.816;2023-11-22T05:28:45;19.40;48.10
32753;DHT22;19121;52.428;10.816;2023-11-22T05:31:12;19.40;48.10
32753;DHT22;19121;52.428;10.816;2023-11-22T05:33:38;19.40;48.10
32753;DHT22;19121;52.428;10.816;2023-11-22T05:36:05;19.40;48.00
32753;DHT22;19121;52.428;10.816;2023-11-22T05:38:30;19.50;48.10
32753;DHT22;19121;52.428;10.816;2023-11-22T05:40:58;19.40;48.00
32753;DHT22;19121;52.428;10.816;2023-11-22T05:43:24;19.50;48.00
32753;DHT22;19121;52.428;10.816;2023-11-22T05:45:52;19.40;47.90
32753;DHT22;19121;52.428;10.816;2023-11-22T05:48:18;19.40;47.90
32753;DHT22;19121;52.428;10.816;2023-11-22T05:50:45;19.50;48.00
32753;DHT22;19121;52.428;10.816;2023-11-22T05:53:10;19.40;47.90
32753;DHT22;19121;52.428;10.816;2023-11-22T05:55:36;19.40;47.90
32753;DHT22;19121;52.428;10.816;2023-11-22T05:58:03;19.50;47.90
32753;DHT22;19121;52.428;10.816;2023-11-22T06:00:28;19.50;47.90
32753;DHT22;19121;52.428;10.816;2023-11-22T06:02:54;19.40;47.90
32753;DHT22;19121;52.428;10.816;2023-11-22T06:05:20;19.40;47.90
32753;DHT22;19121;52.428;10.816;2023-11-22T06:07:46;19.40;47.80
32753;DHT22;19121;52.428;10.816;2023-11-22T06:10:12;19.40;47.80
32753;DHT22;19121;52.428;10.816;2023-11-22T06:12:41;19.40;47.80
32753;DHT22;19121;52.428;10.816;2023-11-22T06:15:06;19.40;47.80
32753;DHT22;19121;52.428;10.816;2023-11-22T06:17:32;19.40;47.80
32753;DHT22;19121;52.428;10.816;2023-11-22T06:19:58;19.40;47.80
32753;DHT22;19121;52.428;10.816;2023-11-22T06:22:23;19.40;47.80
32753;DHT22;19121;52.428;10.816;2023-11-22T06:24:49;19.40;47.80
32753;DHT22;19121;52.428;10.816;2023-11-22T06:27:14;19.40;47.80
32753;DHT22;19121;52.428;10.816;2023-11-22T06:29:42;19.40;47.80
32753;DHT22;19121;52.428;10.816;2023-11-22T06:32:12;19.40;47.70
32753;DHT22;19121;52.428;10.816;2023-11-22T06:34:37;19.40;47.70
32753;DHT22;19121;52.428;10.816;2023-11-22T06:37:03;19.40;47.70
32753;DHT22;19121;52.428;10.816;2023-11-22T06:39:29;19.40;47.70
32753;DHT22;19121;52.428;10.816;2023-11-22T06:41:54;19.40;47.60
32753;DHT22;19121;52.428;10.816;2023-11-22T06:44:20;19.40;47.70
32753;DHT22;19121;52.428;10.816;2023-11-22T06:46:46;19.40;47.60
32753;DHT22;19121;52.428;10.816;2023-11-22T06:49:11;19.40;47.50
32753;DHT22;19121;52.428;10.816;2023-11-22T06:51:37;19.30;47.30
32753;DHT22;19121;52.428;10.816;2023-11-22T06:54:02;19.30;47.50
32753;DHT22;19121;52.428;10.816;2023-11-22T06:56:28;19.20;47.70
32753;DHT22;19121;52.428;10.816;2023-11-22T06:58:53;19.30;47.60
32753;DHT22;19121;52.428;10.816;2023-11-22T07:01:22;19.30;47.50
32753;DHT22;19121;52.428;10.816;2023-11-22T07:03:48;19.30;47.40
32753;DHT22;19121;52.428;10.816;2023-11-22T07:06:14;19.30;47.30
32753;DHT22;19121;52.428;10.816;2023-11-22T07:08:40;19.30;47.20
32753;DHT22;19121;52.428;10.816;2023-11-22T07:11:06;19.40;47.20
32753;DHT22;19121;52.428;10.816;2023-11-22T07:13:35;19.40;47.20
32753;DHT22;19121;52.428;10.816;2023-11-22T07:16:01;19.40;47.10
32753;DHT22;19121;52.428;10.816;2023-11-22T07:18:29;19.40;47.00
32753;DHT22;19121;52.428;10.816;2023-11-22T07:20:54;19.40;47.00
32753;DHT22;19121;52.428;10.816;2023-11-22T07:23:20;19.40;47.00
32753;DHT22;19121;52.428;10.816;2023-11-22T07:25:50;19.40;46.90
32753;DHT22;19121;52.428;10.816;2023-11-22T07:28:16;19.40;46.90
32753;DHT22;19121;52.428;10.816;2023-11-22T07:30:41;19.40;46.90
32753;DHT22;19121;52.428;10.816;2023-11-22T07:33:07;19.40;46.80
32753;DHT22;19121;52.428;10.816;2023-11-22T07:35:33;19.40;46.30
32753;DHT22;19121;52.428;10.816;2023-11-22T07:37:59;19.40;45.60
32753;DHT22;19121;52.428;10.816;2023-11-22T07:40:24;19.40;45.50
32753;DHT22;19121;52.428;10.816;2023-11-22T07:42:50;19.30;45.10
32753;DHT22;19121;52.428;10.816;2023-11-22T07:45:15;19.30;45.00
32753;DHT22;19121;52.428;10.816;2023-11-22T07:47:42;19.40;45.00
32753;DHT22;19121;52.428;10.816;2023-11-22T07:50:09;19.40;45.20
32753;DHT22;19121;52.428;10.816;2023-11-22T07:52:34;19.40;45.20
32753;DHT22;19121;52.428;10.816;2023-11-22T07:55:00;19.50;45.40
32753;DHT22;19121;52.428;10.816;2023-11-22T07:57:25;19.50;45.60
32753;DHT22;19121;52.428;10.816;2023-11-22T07:59:51;19.60;45.70
32753;DHT22;19121;52.428;10.816;2023-11-22T08:02:20;19.50;45.60
32753;DHT22;19121;52.428;10.816;2023-11-22T08:04:45;19.60;45.70
32753;DHT22;19121;52.428;10.816;2023-11-22T08:07:13;19.60;45.70
32753;DHT22;19121;52.428;10.816;2023-11-22T08:09:40;19.70;45.80
32753;DHT22;19121;52.428;10.816;2023-11-22T08:12:06;19.60;45.80
32753;DHT22;19121;52.428;10.816;2023-11-22T08:14:32;19.70;45.80
32753;DHT22;19121;52.428;10.816;2023-11-22T08:16:57;19.70;45.70
32753;DHT22;19121;52.428;10.816;2023-11-22T08:19:23;19.80;45.80
32753;DHT22;19121;52.428;10.816;2023-11-22T08:21:50;19.80;45.80
32753;DHT22;19121;52.428;10.816;2023-11-22T08:24:15;19.80;45.80
32753;DHT22;19121;52.428;10.816;2023-11-22T08:26:41;20.00;45.90
32753;DHT22;19121;52.428;10.816;2023-11-22T08:29:06;19.90;45.90
32753;DHT22;19121;52.428;10.816;2023-11-22T08:31:36;19.90;45.90
32753;DHT22;19121;52.428;10.816;2023-11-22T08:34:02;20.00;46.00
32753;DHT22;19121;52.428;10.816;2023-11-22T08:36:29;19.90;45.90
32753;DHT22;19121;52.428;10.816;2023-11-22T08:38:56;19.90;46.00
32753;DHT22;19121;52.428;10.816;2023-11-22T08:41:25;19.90;46.00
32753;DHT22;19121;52.428;10.816;2023-11-22T08:43:50;19.90;46.00
32753;DHT22;19121;52.428;10.816;2023-11-22T08:46:16;19.90;46.10
32753;DHT22;19121;52.428;10.816;2023-11-22T08:48:41;19.90;46.10
32753;DHT22;19121;52.428;10.816;2023-11-22T08:51:07;19.90;46.10
32753;DHT22;19121;52.428;10.816;2023-11-22T08:53:33;19.90;46.20
32753;DHT22;19121;52.428;10.816;2023-11-22T08:55:58;19.90;46.20
32753;DHT22;19121;52.428;10.816;2023-11-22T08:58:24;19.90;46.20
32753;DHT22;19121;52.428;10.816;2023-11-22T09:00:50;20.00;46.40
32753;DHT22;19121;52.428;10.816;2023-11-22T09:03:15;20.00;46.30
32753;DHT22;19121;52.428;10.816;2023-11-22T09:05:42;20.00;46.40
32753;DHT22;19121;52.428;10.816;2023-11-22T09:08:08;19.90;46.40
32753;DHT22;19121;52.428;10.816;2023-11-22T09:10:40;20.00;46.60
32753;DHT22;19121;52.428;10.816;2023-11-22T09:13:07;20.00;46.60
32753;DHT22;19121;52.428;10.816;2023-11-22T09:15:32;19.90;46.60
32753;DHT22;19121;52.428;10.816;2023-11-22T09:17:59;19.90;46.70
32753;DHT22;19121;52.428;10.816;2023-11-22T09:20:24;20.00;46.80
32753;DHT22;19121;52.428;10.816;2023-11-22T09:22:50;20.00;46.80
32753;DHT22;19121;52.428;10.816;2023-11-22T09:25:17;20.00;46.90
32753;DHT22;19121;52.428;10.816;2023-11-22T09:27:44;20.00;46.80
32753;DHT22;19121;52.428;10.816;2023-11-22T09:30:20;20.00;47.00
32753;DHT22;19121;52.428;10.816;2023-11-22T09:35:26;20.00;47.20
32753;DHT22;19121;52.428;10.816;2023-11-22T09:37:55;20.00;47.40
32753;DHT22;19121;52.428;10.816;2023-11-22T09:40:21;20.00;47.30
32753;DHT22;19121;52.428;10.816;2023-11-22T09:42:48;20.00;47.30
32753;DHT22;19121;52.428;10.816;2023-11-22T09:45:19;20.00;47.30
32753;DHT22;19121;52.428;10.816;2023-11-22T09:47:45;20.10;47.40
32753;DHT22;19121;52.428;10.816;2023-11-22T09:50:13;20.10;47.40
32753;DHT22;19121;52.428;10.816;2023-11-22T09:52:41;20.10;47.40
32753;DHT22;19121;52.428;10.816;2023-11-22T09:55:08;20.10;47.30
32753;DHT22;19121;52.428;10.816;2023-11-22T09:57:34;20.10;47.30
32753;DHT22;19121;52.428;10.816;2023-11-22T10:00:03;20.10;47.30
32753;DHT22;19121;52.428;10.816;2023-11-22T10:02:29;20.10;47.40
32753;DHT22;19121;52.428;10.816;2023-11-22T10:04:55;20.10;47.10
32753;DHT22;19121;52.428;10.816;2023-11-22T10:07:21;20.10;47.00
32753;DHT22;19121;52.428;10.816;2023-11-22T10:09:48;20.10;47.10
32753;DHT22;19121;52.428;10.816;2023-11-22T10:12:18;20.20;47.10
32753;DHT22;19121;52.428;10.816;2023-11-22T10:14:46;20.00;47.00
32753;DHT22;19121;52.428;10.816;2023-11-22T10:17:14;20.00;47.10
32753;DHT22;19121;52.428;10.816;2023-11-22T10:19:42;20.00;47.10
32753;DHT22;19121;52.428;10.816;2023-11-22T10:22:10;20.00;47.10
32753;DHT22;19121;52.428;10.816;2023-11-22T10:24:41;20.00;47.10
32753;DHT22;19121;52.428;10.816;2023-11-22T10:27:08;20.00;47.10
32753;DHT22;19121;52.428;10.816;2023-11-22T10:29:35;20.00;47.10
32753;DHT22;19121;52.428;10.816;2023-11-22T10:32:01;20.00;47.10
32753;DHT22;19121;52.428;10.816;2023-11-22T10:34:28;20.00;47.10
32753;DHT22;19121;52.428;10.816;2023-11-22T10:36:55;20.00;47.10
32753;DHT22;19121;52.428;10.816;2023-11-22T10:39:21;20.00;47.20
32753;DHT22;19121;52.428;10.816;2023-11-22T10:41:47;20.00;47.20
32753;DHT22;19121;52.428;10.816;2023-11-22T10:44:12;20.00;47.20
32753;DHT22;19121;52.428;10.816;2023-11-22T10:46:40;20.00;47.30
32753;DHT22;19121;52.428;10.816;2023-11-22T10:49:06;20.00;47.20
32753;DHT22;19121;52.428;10.816;2023-11-22T10:51:32;20.00;47.20
32753;DHT22;19121;52.428;10.816;2023-11-22T10:53:59;20.00;47.20
32753;DHT22;19121;52.428;10.816;2023-11-22T10:56:26;20.00;47.20
32753;DHT22;19121;52.428;10.816;2023-11-22T10:58:56;20.00;47.20
32753;DHT22;19121;52.428;10.816;2023-11-22T11:01:25;20.10;47.30
32753;DHT22;19121;52.428;10.816;2023-11-22T11:04:01;20.10;47.30
32753;DHT22;19121;52.428;10.816;2023-11-22T11:06:31;20.10;47.40
32753;DHT22;19121;52.428;10.816;2023-11-22T11:08:59;20.20;47.40
32753;DHT22;19121;52.428;10.816;2023-11-22T11:11:25;20.00;47.30
32753;DHT22;19121;52.428;10.816;2023-11-22T11:13:51;20.10;47.90
32753;DHT22;19121;52.428;10.816;2023-11-22T11:16:17;20.00;47.10
32753;DHT22;19121;52.428;10.816;2023-11-22T11:18:42;20.00;47.00
32753;DHT22;19121;52.428;10.816;2023-11-22T11:21:08;20.00;46.90
32753;DHT22;19121;52.428;10.816;2023-11-22T11:23:38;20.20;46.90
32753;DHT22;19121;52.428;10.816;2023-11-22T11:26:17;20.10;46.70
32753;DHT22;19121;52.428;10.816;2023-11-22T11:28:49;20.00;46.70
32753;DHT22;19121;52.428;10.816;2023-11-22T11:31:16;20.00;46.70
32753;DHT22;19121;52.428;10.816;2023-11-22T11:36:23;20.00;46.70
32753;DHT22;19121;52.428;10.816;2023-11-22T11:38:49;20.00;46.60
32753;DHT22;19121;52.428;10.816;2023-11-22T11:41:16;20.10;46.60
32753;DHT22;19121;52.428;10.816;2023-11-22T11:43:45;20.10;46.80
32753;DHT22;19121;52.428;10.816;2023-11-22T11:46:11;20.10;46.70
32753;DHT22;19121;52.428;10.816;2023-11-22T11:48:37;20.10;46.70
32753;DHT22;19121;52.428;10.816;2023-11-22T11:51:02;20.10;46.60
32753;DHT22;19121;52.428;10.816;2023-11-22T11:53:28;20.10;46.60
32753;DHT22;19121;52.428;10.816;2023-11-22T11:55:56;20.10;46.60
32753;DHT22;19121;52.428;10.816;2023-11-22T11:58:22;20.10;46.80
32753;DHT22;19121;52.428;10.816;2023-11-22T12:00:50;20.10;46.70
32753;DHT22;19121;52.428;10.816;2023-11-22T12:03:16;20.10;47.10
32753;DHT22;19121;52.428;10.816;2023-11-22T12:05:46;20.10;47.40
32753;DHT22;19121;52.428;10.816;2023-11-22T12:08:11;20.10;47.50
32753;DHT22;19121;52.428;10.816;2023-11-22T12:10:41;20.10;47.20
32753;DHT22;19121;52.428;10.816;2023-11-22T12:13:06;20.10;47.40
32753;DHT22;19121;52.428;10.816;2023-11-22T12:15:33;20.30;47.20
32753;DHT22;19121;52.428;10.816;2023-11-22T12:17:58;20.30;47.30
32753;DHT22;19121;52.428;10.816;2023-11-22T12:20:26;20.20;47.10
32753;DHT22;19121;52.428;10.816;2023-11-22T12:22:59;20.20;47.10
32753;DHT22;19121;52.428;10.816;2023-11-22T12:25:26;20.20;47.00
32753;DHT22;19121;52.428;10.816;2023-11-22T12:27:53;20.30;47.10
32753;DHT22;19121;52.428;10.816;2023-11-22T12:30:35;20.20;47.10
32753;DHT22;19121;52.428;10.816;2023-11-22T12:33:01;20.20;47.00
32753;DHT22;19121;52.428;10.816;2023-11-22T12:35:27;20.20;47.00
32753;DHT22;19121;52.428;10.816;2023-11-22T12:37:53;20.20;47.00
32753;DHT22;19121;52.428;10.816;2023-11-22T12:40:20;20.20;47.10
32753;DHT22;19121;52.428;10.816;2023-11-22T12:42:49;20.20;46.80
32753;DHT22;19121;52.428;10.816;2023-11-22T12:45:17;20.20;46.80
32753;DHT22;19121;52.428;10.816;2023-11-22T12:47:43;20.20;46.90
32753;DHT22;19121;52.428;10.816;2023-11-22T12:50:28;20.20;46.80
32753;DHT22;19121;52.428;10.816;2023-11-22T12:52:55;20.20;46.80
32753;DHT22;19121;52.428;10.816;2023-11-22T12:55:20;20.30;46.80
32753;DHT22;19121;52.428;10.816;2023-11-22T12:57:55;20.30;46.70
32753;DHT22;19121;52.428;10.816;2023-11-22T13:00:21;20.30;46.70
32753;DHT22;19121;52.428;10.816;2023-11-22T13:02:47;20.20;46.60
32753;DHT22;19121;52.428;10.816;2023-11-22T13:05:12;20.30;46.60
32753;DHT22;19121;52.428;10.816;2023-11-22T13:07:40;20.30;46.60
32753;DHT22;19121;52.428;10.816;2023-11-22T13:10:08;20.30;46.60
32753;DHT22;19121;52.428;10.816;2023-11-22T13:12:35;20.30;46.50
32753;DHT22;19121;52.428;10.816;2023-11-22T13:15:00;20.30;46.40
32753;DHT22;19121;52.428;10.816;2023-11-22T13:17:26;20.30;46.40
32753;DHT22;19121;52.428;10.816;2023-11-22T13:19:51;20.30;46.40
32753;DHT22;19121;52.428;10.816;2023-11-22T13:22:16;20.30;46.40
32753;DHT22;19121;52.428;10.816;2023-11-22T13:24:44;20.30;46.40
32753;DHT22;19121;52.428;10.816;2023-11-22T13:27:09;20.30;46.40
32753;DHT22;19121;52.428;10.816;2023-11-22T13:29:35;20.30;46.40
32753;DHT22;19121;52.428;10.816;2023-11-22T13:32:00;20.30;46.40
32753;DHT22;19121;52.428;10.816;2023-11-22T13:34:26;20.30;46.40
32753;DHT22;19121;52.428;10.816;2023-11-22T13:36:51;20.30;46.40
32753;DHT22;19121;52.428;10.816;2023-11-22T13:39:17;20.30;46.40
32753;DHT22;19121;52.428;10.816;2023-11-22T13:41:42;20.30;46.40
32753;DHT22;19121;52.428;10.816;2023-11-22T13:44:08;20.30;46.40
32753;DHT22;19121;52.428;10.816;2023-11-22T13:46:33;20.40;46.40
32753;DHT22;19121;52.428;10.816;2023-11-22T13:48:58;20.30;46.40
32753;DHT22;19121;52.428;10.816;2023-11-22T13:51:24;20.30;46.40
32753;DHT22;19121;52.428;10.816;2023-11-22T13:53:50;20.30;46.40
32753;DHT22;19121;52.428;10.816;2023-11-22T13:56:18;20.40;46.50
32753;DHT22;19121;52.428;10.816;2023-11-22T13:58:44;20.30;46.40
32753;DHT22;19121;52.428;10.816;2023-11-22T14:01:09;20.30;46.30
32753;DHT22;19121;52.428;10.816;2023-11-22T14:03:40;20.30;46.40
32753;DHT22;19121;52.428;10.816;2023-11-22T14:06:06;20.30;46.40
32753;DHT22;19121;52.428;10.816;2023-11-22T14:08:31;20.30;46.40
32753;DHT22;19121;52.428;10.816;2023-11-22T14:10:57;20.30;46.40
32753;DHT22;19121;52.428;10.816;2023-11-22T14:13:23;20.30;46.40
32753;DHT22;19121;52.428;10.816;2023-11-22T14:15:48;20.30;46.40
32753;DHT22;19121;52.428;10.816;2023-11-22T14:18:13;20.30;46.40
32753;DHT22;19121;52.428;10.816;2023-11-22T14:20:39;20.30;46.40
32753;DHT22;19121;52.428;10.816;2023-11-22T14:23:04;20.30;46.40
32753;DHT22;19121;52.428;10.816;2023-11-22T14:25:30;20.30;46.40
32753;DHT22;19121;52.428;10.816;2023-11-22T14:27:57;20.40;46.50
32753;DHT22;19121;52.428;10.816;2023-11-22T14:30:24;20.30;46.40
32753;DHT22;19121;52.428;10.816;2023-11-22T14:32:52;20.30;46.40
32753;DHT22;19121;52.428;10.816;2023-11-22T14:35:18;20.40;46.50
32753;DHT22;19121;52.428;10.816;2023-11-22T14:37:43;20.30;46.40
32753;DHT22;19121;52.428;10.816;2023-11-22T14:40:10;20.30;46.40
32753;DHT22;19121;52.428;10.816;2023-11-22T14:42:42;20.30;46.40
32753;DHT22;19121;52.428;10.816;2023-11-22T14:45:08;20.30;46.40
32753;DHT22;19121;52.428;10.816;2023-11-22T14:47:33;20.30;46.50
32753;DHT22;19121;52.428;10.816;2023-11-22T14:50:01;20.40;46.50
32753;DHT22;19121;52.428;10.816;2023-11-22T14:52:29;20.30;46.60
32753;DHT22;19121;52.428;10.816;2023-11-22T14:54:55;20.30;46.60
32753;DHT22;19121;52.428;10.816;2023-11-22T14:57:21;20.30;46.60
32753;DHT22;19121;52.428;10.816;2023-11-22T14:59:47;20.30;46.60
32753;DHT22;19121;52.428;10.816;2023-11-22T15:02:14;20.30;46.60
32753;DHT22;19121;52.428;10.816;2023-11-22T15:04:40;20.20;46.50
32753;DHT22;19121;52.428;10.816;2023-11-22T15:07:07;20.20;46.50
32753;DHT22;19121;52.428;10.816;2023-11-22T15:09:33;20.30;46.50
32753;DHT22;19121;52.428;10.816;2023-11-22T15:11:59;20.30;46.60
32753;DHT22;19121;52.428;10.816;2023-11-22T15:14:24;20.20;46.50